Details From KSEA - Seattle Tacoma Intl
To KGRF - GRAY AAF
Flight Number -
Tags decoded
Created
Modified
Stats Distance 25 nm / 46 km
Max Altitude 0 ft / 0 m
Waypoints 3
Social Downloads 6
Likes 0
Share VATSIM

Download

Looking for another format? Having issues loading an existing format? Contact us
Advertisement - Login to hide

Notes

Requested: KSEA SEA KGRF

Route

KSEA SEA KGRF

ID Type Via Altitude Latitude Longitude Leg Dist Tot Dist Heading (true) Name
O KSEA APT - 0 ft / 0 m 47.45019˚ -122.31232˚ - 0 nm - Seattle Tacoma Intl
SEA VOR - 0 ft / 0 m 47.43536˚ -122.30961˚ 0 nm 0 nm 173° / 173° SEATTLE VORTAC
O KGRF APT - 0 ft / 0 m 47.07922˚ -122.58078˚ 24 nm 24 nm 207° / 207° GRAY AAF

Altitude Profile

Advertisement - Login to hide

KSEA

Details ICAO KSEA (SEA)
Name Seattle Tacoma Intl
Region United States
Timezone America/Los_Angeles (UTC-7.0)
Stats Elevation 433 ft / 132 m (AMSL)
Location 47.450188° -122.312320°
Runways 3
Magnetic Variation 15.623° E

METAR

KSEA 212353Z 35007KT 320V020 10SM FEW040 SCT250 21/08 A3003 RMK AO2 SLP174 T02110083 10222 20139 56009

Decode

TAF

TAF KSEA 212320Z 2200/2306 30007KT P6SM SCT040 SCT250 FM220600 02006KT P6SM SCT250 FM221800 34006KT P6SM SCT250

Decode

Departure Runways

ID Width Length Bearing (true) Bearing (mag) Surface Threshold Offset Overrun Length
16C 151 ft / 46 m 9,429 ft / 2,874 m 180.34° 164.72° Concrete 0 ft / 0 m 223 ft / 68 m
16L 151 ft / 46 m 11,904 ft / 3,628 m 180.34° 164.72° Concrete 0 ft / 0 m 151 ft / 46 m
16R 151 ft / 46 m 8,503 ft / 2,592 m 180.34° 164.72° Concrete 0 ft / 0 m 164 ft / 50 m
34C 151 ft / 46 m 9,429 ft / 2,874 m 0.34° 344.72° Concrete 0 ft / 0 m 394 ft / 120 m
34L 151 ft / 46 m 8,503 ft / 2,592 m 0.34° 344.72° Concrete 0 ft / 0 m 394 ft / 120 m
34R 151 ft / 46 m 11,904 ft / 3,628 m 0.34° 344.72° Concrete 0 ft / 0 m 400 ft / 122 m

KGRF

Details ICAO KGRF (GRF)
Name GRAY AAF
Region United States
Timezone America/Los_Angeles (UTC-7.0)
Stats Elevation 302 ft / 92 m (AMSL)
Location 47.079218° -122.580783°
Runways 1
Magnetic Variation 15.584° E

METAR

KGRF 212358Z 32005G15KT 10SM SCT040 20/12 A3002 RMK AO2A SLP169 T02030118 10206 20147 57011

Decode

TAF

TAF KGRF 212101Z 2121/2303 VRB06KT 9999 SCT030 QNH3005INS BECMG 2206/2207 VRB06KT 8000 BR SCT020 QNH3002INS BECMG 2216/2217 22009KT 9999 NSW SCT030 QNH3006INS TX19/2123Z TN10/2213Z

Decode

Destination Runways

ID Width Length Bearing (true) Bearing (mag) Surface Threshold Offset Overrun Length
15 150 ft / 46 m 6,126 ft / 1,867 m 167.11° 151.53° Asphalt 0 ft / 0 m 0 ft / 0 m
33 150 ft / 46 m 6,126 ft / 1,867 m 347.11° 331.53° Asphalt 0 ft / 0 m 0 ft / 0 m

Approach Navaids

Runway Type Ident Frequency Range Bearing (true) Bearing (mag) Slope Elevation
15 Localiser IGRF 108.30 MHz 18 nm / 33 km 167.09° 151.50° - 302 ft / 92 m (AMSL)
15 Glidescope IGRF 108.30 MHz 10 nm / 19 km 167.11° 151.52° 3.00° 296 ft / 90 m (AMSL)

Popular Alternatives